createdAt,value
2019-01-02T00:00:36.918Z,66.59
2019-01-02T00:03:06.589Z,67.07
2019-01-02T00:05:37.911Z,67.49
2019-01-02T00:08:07.428Z,67.35
2019-01-02T00:10:37.551Z,66.80
2019-01-02T00:13:07.055Z,66.76
2019-01-02T00:15:37.834Z,67.05
2019-01-02T00:18:07.829Z,67.58
2019-01-02T00:20:37.323Z,67.42
2019-01-02T00:23:07.328Z,68.21
2019-01-02T00:25:37.369Z,68.14
2019-01-02T00:28:07.583Z,68.12
2019-01-02T00:30:56.481Z,68.27
2019-01-02T00:33:25.974Z,67.70
2019-01-02T00:35:55.855Z,68.12
2019-01-02T00:38:25.757Z,68.00
2019-01-02T00:40:55.706Z,68.42
2019-01-02T00:43:25.226Z,68.39
2019-01-02T00:45:54.980Z,68.03
2019-01-02T00:48:24.491Z,67.77
2019-01-02T00:50:54.663Z,67.48
2019-01-02T00:53:24.251Z,67.31
2019-01-02T00:55:53.964Z,66.98
2019-01-02T00:58:23.468Z,66.69
2019-01-02T01:00:53.849Z,67.18
2019-01-02T01:03:23.376Z,66.80
2019-01-02T01:05:53.146Z,67.22
2019-01-02T01:08:22.692Z,67.00
2019-01-02T01:10:52.597Z,66.67
2019-01-02T01:13:22.104Z,66.44
2019-01-02T01:15:52.088Z,66.48
2019-01-02T01:18:21.617Z,66.67
2019-01-02T01:20:51.398Z,66.08
2019-01-02T01:23:21.089Z,66.86
2019-01-02T01:25:50.578Z,66.68
2019-01-02T01:28:20.063Z,66.59
2019-01-02T01:30:49.607Z,66.14
2019-01-02T01:33:19.699Z,66.13
2019-01-02T01:35:49.248Z,65.75
2019-01-02T01:38:18.780Z,65.37
2019-01-02T01:40:48.912Z,65.76
2019-01-02T01:43:18.429Z,66.16
2019-01-02T01:45:48.879Z,65.42
2019-01-02T01:48:18.412Z,65.56
2019-01-02T01:50:47.963Z,65.52
2019-01-02T01:53:18.062Z,65.67
2019-01-02T01:55:47.570Z,65.97
2019-01-02T01:58:17.083Z,65.35
2019-01-02T02:00:47.193Z,64.76
2019-01-02T02:03:16.676Z,64.93
2019-01-02T02:05:46.252Z,64.67
2019-01-02T02:08:15.864Z,64.87
2019-01-02T02:10:45.377Z,64.09
2019-01-02T02:13:15.352Z,64.34
2019-01-02T02:15:44.949Z,63.80
2019-01-02T02:18:14.429Z,63.56
2019-01-02T02:20:44.299Z,63.73
2019-01-02T02:23:13.832Z,63.45
2019-01-02T02:25:43.523Z,62.96
2019-01-02T02:28:13.051Z,62.64
2019-01-02T02:30:42.958Z,62.68
2019-01-02T02:33:13.041Z,62.67
2019-01-02T02:35:43.130Z,62.54
2019-01-02T02:38:13.333Z,62.00
2019-01-02T02:40:43.387Z,62.49
2019-01-02T02:43:12.965Z,61.95
2019-01-02T02:45:42.539Z,61.96
2019-01-02T02:48:12.951Z,62.20
2019-01-02T02:50:42.836Z,61.23
2019-01-02T02:53:13.158Z,61.29
2019-01-02T02:55:43.297Z,61.26
2019-01-02T02:58:13.157Z,61.17
2019-01-02T03:00:42.887Z,61.41
2019-01-02T03:03:13.633Z,61.21
2019-01-02T03:05:43.186Z,61.33
2019-01-02T03:08:12.707Z,61.16
2019-01-02T03:10:42.608Z,61.18
2019-01-02T03:13:12.474Z,60.87
2019-01-02T03:15:42.731Z,60.77
2019-01-02T03:18:12.715Z,60.85
2019-01-02T03:20:42.231Z,60.03
2019-01-02T03:23:11.868Z,60.45
2019-01-02T03:25:41.844Z,60.32
2019-01-02T03:28:11.753Z,60.21
2019-01-02T03:30:41.808Z,60.01
2019-01-02T03:33:11.815Z,60.00
2019-01-02T03:35:41.318Z,59.67
2019-01-02T03:38:10.922Z,59.83
2019-01-02T03:40:40.412Z,59.26
2019-01-02T03:43:09.911Z,59.39
2019-01-02T03:45:39.482Z,59.37
2019-01-02T03:48:09.013Z,59.40
2019-01-02T03:50:38.516Z,60.17
2019-01-02T03:53:08.075Z,59.80
2019-01-02T03:55:37.570Z,59.75
2019-01-02T03:58:07.084Z,59.77
2019-01-02T04:00:36.744Z,60.28
2019-01-02T04:03:06.745Z,59.79
2019-01-02T04:05:36.223Z,60.07
2019-01-02T04:08:05.788Z,59.69
2019-01-02T04:10:35.289Z,60.02
2019-01-02T04:13:04.797Z,59.89
2019-01-02T04:15:34.335Z,60.26
2019-01-02T04:18:03.856Z,60.73
2019-01-02T04:20:33.358Z,60.54
2019-01-02T04:23:03.254Z,61.30
2019-01-02T04:25:32.798Z,61.79
2019-01-02T04:28:02.300Z,61.45
2019-01-02T04:30:31.842Z,61.40
2019-01-02T04:33:01.354Z,61.46
2019-01-02T04:35:30.891Z,61.52
2019-01-02T04:38:00.779Z,61.72
2019-01-02T04:40:30.269Z,61.88
2019-01-02T04:42:59.774Z,61.89
2019-01-02T04:45:29.578Z,62.33
2019-01-02T04:47:59.096Z,62.93
2019-01-02T04:50:28.563Z,62.97
2019-01-02T04:52:58.088Z,62.50
2019-01-02T04:55:27.637Z,62.78
2019-01-02T04:57:57.146Z,62.71
2019-01-02T05:00:26.661Z,62.96
2019-01-02T05:02:56.137Z,62.93
2019-01-02T05:05:25.640Z,62.97
2019-01-02T05:07:55.212Z,63.10
2019-01-02T05:10:24.719Z,62.84
2019-01-02T05:12:54.238Z,62.99
2019-01-02T05:15:23.742Z,63.39
2019-01-02T05:17:53.218Z,63.47
2019-01-02T05:20:22.731Z,63.44
2019-01-02T05:22:52.254Z,62.91
2019-01-02T05:25:21.760Z,63.35
2019-01-02T05:27:51.246Z,63.06
2019-01-02T05:30:21.540Z,63.41
2019-01-02T05:32:51.051Z,63.21
2019-01-02T05:35:20.549Z,63.62
2019-01-02T05:37:50.061Z,63.14
2019-01-02T05:40:20.027Z,62.84
2019-01-02T05:42:49.562Z,62.67
2019-01-02T05:45:19.788Z,62.39
2019-01-02T05:47:49.320Z,62.79
2019-01-02T05:50:38.691Z,62.63
2019-01-02T05:53:08.219Z,62.43
2019-01-02T05:55:37.736Z,62.09
2019-01-02T05:58:07.268Z,61.70
2019-01-02T06:00:39.993Z,61.42
2019-01-02T06:03:10.068Z,61.24
2019-01-02T06:05:39.713Z,61.50
2019-01-02T06:08:09.208Z,60.78
2019-01-02T06:10:38.700Z,60.94
2019-01-02T06:13:08.270Z,60.64
2019-01-02T06:15:37.800Z,60.37
2019-01-02T06:18:07.302Z,60.47
2019-01-02T06:20:36.920Z,60.79
2019-01-02T06:23:06.424Z,60.33
2019-01-02T06:25:35.944Z,60.71
2019-01-02T06:28:05.990Z,59.95
2019-01-02T06:30:35.517Z,60.11
2019-01-02T06:33:05.045Z,60.13
2019-01-02T06:35:34.578Z,59.68
2019-01-02T06:38:04.081Z,59.65
2019-01-02T06:40:33.624Z,59.84
2019-01-02T06:43:03.158Z,59.21
2019-01-02T06:45:32.662Z,59.02
2019-01-02T06:48:02.186Z,58.83
2019-01-02T06:50:31.875Z,58.38
2019-01-02T06:53:01.380Z,58.74
2019-01-02T06:55:30.894Z,58.49
2019-01-02T06:58:00.451Z,58.46
2019-01-02T07:00:31.239Z,57.89
2019-01-02T07:03:00.694Z,58.34
2019-01-02T07:05:30.245Z,57.48
2019-01-02T07:07:59.756Z,57.15
2019-01-02T07:10:29.254Z,56.83
2019-01-02T07:12:58.963Z,56.95
2019-01-02T07:15:28.458Z,56.30
2019-01-02T07:17:57.946Z,56.12
2019-01-02T07:20:27.506Z,56.66
2019-01-02T07:22:57.009Z,55.96
2019-01-02T07:25:26.575Z,55.60
2019-01-02T07:27:56.095Z,54.99
2019-01-02T07:30:25.592Z,55.50
2019-01-02T07:32:55.109Z,55.14
2019-01-02T07:35:41.270Z,54.88
2019-01-02T07:38:43.052Z,54.15
2019-01-02T07:41:50.775Z,54.99
2019-01-02T07:44:42.887Z,55.14
2019-01-02T07:47:36.677Z,54.63
2019-01-02T07:50:27.308Z,54.37
2019-01-02T07:53:33.421Z,54.19
2019-01-02T07:56:31.632Z,54.28
2019-01-02T07:59:11.327Z,53.86
2019-01-02T08:01:51.321Z,53.57
2019-01-02T08:04:59.618Z,53.19
2019-01-02T08:08:07.008Z,52.93
2019-01-02T08:10:56.097Z,51.33
2019-01-02T08:14:00.331Z,48.92
2019-01-02T08:17:04.700Z,47.89
2019-01-02T08:19:53.486Z,47.06
2019-01-02T08:23:10.021Z,45.31
2019-01-02T08:25:50.029Z,43.65
2019-01-02T08:28:49.463Z,41.23
2019-01-02T08:31:58.105Z,40.43
2019-01-02T08:34:59.321Z,39.22
2019-01-02T08:37:38.900Z,38.87
2019-01-02T08:40:52.235Z,37.33
2019-01-02T08:43:35.093Z,37.63
2019-01-02T08:46:33.868Z,35.53
2019-01-02T08:49:26.329Z,33.68
2019-01-02T08:52:15.254Z,32.34
2019-01-02T08:54:58.035Z,31.36
2019-01-02T08:58:13.211Z,31.13
2019-01-02T09:01:11.112Z,29.55
2019-01-02T09:03:54.618Z,30.92
2019-01-02T09:07:00.537Z,29.42
2019-01-02T09:10:00.238Z,28.54
2019-01-02T09:13:00.822Z,28.49
2019-01-02T09:16:03.702Z,28.04
2019-01-02T09:19:07.872Z,26.43
2019-01-02T09:21:45.353Z,26.43
2019-01-02T09:24:45.920Z,24.86
2019-01-02T09:27:49.746Z,27.18
2019-01-02T09:30:50.823Z,26.09
2019-01-02T09:33:54.137Z,25.29
2019-01-02T09:37:02.953Z,23.95
2019-01-02T09:39:46.199Z,23.49
2019-01-02T09:42:26.377Z,23.26
2019-01-02T09:45:18.384Z,24.09
2019-01-02T09:48:24.227Z,23.50
2019-01-02T09:51:20.975Z,23.62
2019-01-02T09:54:29.941Z,22.97
2019-01-02T09:57:22.503Z,22.72
2019-01-02T10:00:02.350Z,21.89
2019-01-02T10:03:02.248Z,21.13
2019-01-02T10:05:53.959Z,20.75
2019-01-02T10:08:39.776Z,21.67
2019-01-02T10:11:25.935Z,21.23
2019-01-02T10:14:22.595Z,21.94
2019-01-02T10:17:23.934Z,21.82
2019-01-02T10:20:19.024Z,21.02
2019-01-02T10:22:55.654Z,21.11
2019-01-02T10:25:44.686Z,21.25
2019-01-02T10:28:48.550Z,21.07
2019-01-02T10:31:47.070Z,20.82
2019-01-02T10:34:35.298Z,21.14
2019-01-02T10:37:21.653Z,21.48
2019-01-02T10:40:10.795Z,23.46
2019-01-02T10:43:04.776Z,25.92
2019-01-02T10:46:04.727Z,28.74
2019-01-02T10:48:48.148Z,31.02
2019-01-02T10:51:45.247Z,32.09
2019-01-02T10:54:57.135Z,33.25
2019-01-02T10:57:54.545Z,33.47
2019-01-02T11:01:00.676Z,31.45
2019-01-02T11:03:46.167Z,31.31
2019-01-02T11:06:25.723Z,30.28
2019-01-02T11:08:59.943Z,31.98
2019-01-02T11:12:05.826Z,31.08
2019-01-02T11:14:57.761Z,29.88
2019-01-02T11:17:56.387Z,30.43
2019-01-02T11:20:53.016Z,32.69
2019-01-02T11:23:52.094Z,30.98
2019-01-02T11:26:43.889Z,31.91
2019-01-02T11:29:46.842Z,30.66
2019-01-02T11:32:39.079Z,28.10
2019-01-02T11:35:28.070Z,26.71
2019-01-02T11:38:11.259Z,25.23
2019-01-02T11:40:57.474Z,24.14
2019-01-02T11:44:06.383Z,22.36
2019-01-02T11:46:35.936Z,20.92
2019-01-02T11:49:05.431Z,20.82
2019-01-02T11:51:35.005Z,21.00
2019-01-02T11:54:04.572Z,21.39
2019-01-02T11:56:34.262Z,23.74
2019-01-02T11:59:03.787Z,24.57
2019-01-02T12:01:33.420Z,23.66
2019-01-02T12:04:03.360Z,24.07
2019-01-02T12:06:32.888Z,24.78
2019-01-02T12:09:02.418Z,25.64
2019-01-02T12:11:32.040Z,26.06
2019-01-02T12:14:01.531Z,24.93
2019-01-02T12:16:31.198Z,26.55
2019-01-02T12:19:00.785Z,28.46
2019-01-02T12:21:30.305Z,30.06
2019-01-02T12:24:00.190Z,30.62
2019-01-02T12:26:29.715Z,28.30
2019-01-02T12:28:59.594Z,29.20
2019-01-02T12:31:29.317Z,30.38
2019-01-02T12:33:58.763Z,31.33
2019-01-02T12:36:28.266Z,31.60
2019-01-02T12:38:57.869Z,28.50
2019-01-02T12:41:27.365Z,26.99
2019-01-02T12:43:57.281Z,25.43
2019-01-02T12:46:27.180Z,24.86
2019-01-02T12:48:57.914Z,22.81
2019-01-02T12:51:27.483Z,23.06
2019-01-02T12:53:57.040Z,25.51
2019-01-02T12:56:26.574Z,27.42
2019-01-02T12:58:56.112Z,28.02
2019-01-02T13:01:51.222Z,28.23
2019-01-02T13:04:28.289Z,26.10
2019-01-02T13:07:35.190Z,27.11
2019-01-02T13:10:17.443Z,28.22
2019-01-02T13:13:10.974Z,28.38
2019-01-02T13:15:54.492Z,25.91
2019-01-02T13:18:37.184Z,24.62
2019-01-02T13:21:32.160Z,25.12
2019-01-02T13:24:12.342Z,25.36
2019-01-02T13:26:46.556Z,23.77
2019-01-02T13:29:51.063Z,22.65
2019-01-02T13:32:45.985Z,23.49
2019-01-02T13:35:38.594Z,23.08
2019-01-02T13:38:18.531Z,23.96
2019-01-02T13:40:55.644Z,25.13
2019-01-02T13:43:38.333Z,28.01
2019-01-02T13:46:21.562Z,28.35
2019-01-02T13:49:04.863Z,29.76
2019-01-02T13:51:34.665Z,30.78
2019-01-02T13:54:04.159Z,28.04
2019-01-02T13:56:33.748Z,26.23
2019-01-02T13:59:03.295Z,25.38
2019-01-02T14:01:32.795Z,25.78
2019-01-02T14:04:02.324Z,25.77
2019-01-02T14:06:31.842Z,26.86
2019-01-02T14:09:01.397Z,26.97
2019-01-02T14:11:30.905Z,27.26
2019-01-02T14:14:00.864Z,28.94
2019-01-02T14:16:30.467Z,29.16
2019-01-02T14:19:00.348Z,30.14
2019-01-02T14:21:29.958Z,29.92
2019-01-02T14:23:59.503Z,30.54
2019-01-02T14:26:29.067Z,31.48
2019-01-02T14:28:58.605Z,32.57
2019-01-02T14:31:28.511Z,34.02
2019-01-02T14:33:57.999Z,34.92
2019-01-02T14:36:27.715Z,35.85
2019-01-02T14:38:57.244Z,36.70
2019-01-02T14:41:26.771Z,37.10
2019-01-02T14:43:56.286Z,37.51
2019-01-02T14:46:25.804Z,38.01
2019-01-02T14:48:55.334Z,39.52
2019-01-02T14:51:25.357Z,38.19
2019-01-02T14:53:54.851Z,38.52
2019-01-02T14:56:24.346Z,39.15
2019-01-02T14:58:53.926Z,39.51
2019-01-02T15:01:23.443Z,39.93
2019-01-02T15:03:52.955Z,40.08
2019-01-02T15:06:22.508Z,40.47
2019-01-02T15:08:51.989Z,40.11
2019-01-02T15:11:21.524Z,40.08
2019-01-02T15:13:51.099Z,40.21
2019-01-02T15:16:20.627Z,40.52
2019-01-02T15:18:50.145Z,40.40
2019-01-02T15:21:20.129Z,40.58
2019-01-02T15:23:49.634Z,40.97
2019-01-02T15:26:19.171Z,41.37
2019-01-02T15:28:48.745Z,41.99
2019-01-02T15:31:18.241Z,42.11
2019-01-02T15:33:47.764Z,41.87
2019-01-02T15:36:17.325Z,42.72
2019-01-02T15:38:46.809Z,42.03
2019-01-02T15:41:16.314Z,41.94
2019-01-02T15:43:46.110Z,42.21
2019-01-02T15:46:15.632Z,42.50
2019-01-02T15:48:45.146Z,42.53
2019-01-02T15:51:14.733Z,43.12
2019-01-02T15:53:44.212Z,43.30
2019-01-02T15:56:13.761Z,43.26
2019-01-02T15:58:43.322Z,43.22
2019-01-02T16:01:12.842Z,43.42
2019-01-02T16:03:42.390Z,43.89
2019-01-02T16:06:12.414Z,43.95
2019-01-02T16:08:41.999Z,43.95
2019-01-02T16:11:11.555Z,43.82
2019-01-02T16:13:41.113Z,44.25
2019-01-02T16:16:10.662Z,44.49
2019-01-02T16:18:40.191Z,44.70
2019-01-02T16:21:09.775Z,44.15
2019-01-02T16:23:39.297Z,44.37
2019-01-02T16:26:08.815Z,44.55
2019-01-02T16:28:38.708Z,45.07
2019-01-02T16:31:08.253Z,45.12
2019-01-02T16:33:37.775Z,45.39
2019-01-02T16:36:07.321Z,45.81
2019-01-02T16:38:36.845Z,45.79
2019-01-02T16:41:06.372Z,45.61
2019-01-02T16:43:35.910Z,45.97
2019-01-02T16:46:05.442Z,46.15
2019-01-02T16:48:34.944Z,46.32
2019-01-02T16:51:04.952Z,46.53
2019-01-02T16:53:34.604Z,46.76
2019-01-02T16:56:04.652Z,46.72
2019-01-02T16:58:34.674Z,46.98
2019-01-02T17:01:04.141Z,46.77
2019-01-02T17:03:33.643Z,47.10
2019-01-02T17:06:03.188Z,47.03
2019-01-02T17:08:32.677Z,47.36
2019-01-02T17:11:02.193Z,47.69
2019-01-02T17:13:32.135Z,47.19
2019-01-02T17:16:02.118Z,47.70
2019-01-02T17:18:31.601Z,47.42
2019-01-02T17:21:01.154Z,47.70
2019-01-02T17:23:30.735Z,47.64
2019-01-02T17:26:00.224Z,48.66
2019-01-02T17:28:29.771Z,48.47
2019-01-02T17:30:59.278Z,47.85
2019-01-02T17:33:28.795Z,48.24
2019-01-02T17:35:58.733Z,48.63
2019-01-02T17:38:28.250Z,48.27
2019-01-02T17:40:58.314Z,47.81
2019-01-02T17:43:27.907Z,48.41
2019-01-02T17:45:57.397Z,48.35
2019-01-02T17:48:26.957Z,48.69
2019-01-02T17:50:56.507Z,48.89
2019-01-02T17:53:26.026Z,48.37
2019-01-02T17:55:55.569Z,48.78
2019-01-02T17:58:25.339Z,48.72
2019-01-02T18:00:55.302Z,48.86
2019-01-02T18:03:24.802Z,48.73
2019-01-02T18:05:54.459Z,48.46
2019-01-02T18:08:23.978Z,48.61
2019-01-02T18:10:53.476Z,48.88
2019-01-02T18:13:23.061Z,49.23
2019-01-02T18:15:52.581Z,49.21
2019-01-02T18:18:22.091Z,49.19
2019-01-02T18:20:52.098Z,49.58
2019-01-02T18:23:21.601Z,49.73
2019-01-02T18:25:51.108Z,50.12
2019-01-02T18:28:20.620Z,50.37
2019-01-02T18:30:50.288Z,50.14
2019-01-02T18:33:19.836Z,50.52
2019-01-02T18:35:49.399Z,50.50
2019-01-02T18:38:18.921Z,50.60
2019-01-02T18:40:48.433Z,50.58
2019-01-02T18:43:18.026Z,50.63
2019-01-02T18:45:47.527Z,50.75
2019-01-02T18:48:17.024Z,50.26
2019-01-02T18:50:46.553Z,50.80
2019-01-02T18:53:16.146Z,50.76
2019-01-02T18:55:45.644Z,50.84
2019-01-02T18:58:15.194Z,51.39
2019-01-02T19:00:44.765Z,51.20
2019-01-02T19:03:14.245Z,51.07
2019-01-02T19:05:43.903Z,51.30
2019-01-02T19:08:13.374Z,51.39
2019-01-02T19:10:42.886Z,51.37
2019-01-02T19:13:12.417Z,51.64
2019-01-02T19:15:42.405Z,51.61
2019-01-02T19:18:11.942Z,51.82
2019-01-02T19:20:41.769Z,52.14
2019-01-02T19:23:11.317Z,51.98
2019-01-02T19:25:40.828Z,52.09
2019-01-02T19:28:11.012Z,51.94
2019-01-02T19:30:40.521Z,51.90
2019-01-02T19:33:11.611Z,51.87
2019-01-02T19:35:41.129Z,51.79
2019-01-02T19:38:10.738Z,52.05
2019-01-02T19:40:40.246Z,52.07
2019-01-02T19:43:09.804Z,51.89
2019-01-02T19:45:39.661Z,52.27
2019-01-02T19:48:09.180Z,52.22
2019-01-02T19:50:39.020Z,52.19
2019-01-02T19:53:08.534Z,52.08
2019-01-02T19:55:38.068Z,52.12
2019-01-02T19:58:07.615Z,51.68
2019-01-02T20:00:37.129Z,51.72
2019-01-02T20:03:06.666Z,52.14
2019-01-02T20:05:55.676Z,52.05
2019-01-02T20:08:25.713Z,52.44
2019-01-02T20:10:55.292Z,52.40
2019-01-02T20:13:24.851Z,52.60
2019-01-02T20:15:54.433Z,52.35
2019-01-02T20:18:23.937Z,52.36
2019-01-02T20:20:53.462Z,52.32
2019-01-02T20:23:22.951Z,52.22
2019-01-02T20:25:52.470Z,52.26
2019-01-02T20:28:22.770Z,52.11
2019-01-02T20:30:52.285Z,52.26
2019-01-02T20:33:21.806Z,52.48
2019-01-02T20:35:51.650Z,52.36
2019-01-02T20:38:21.148Z,52.38
2019-01-02T20:40:50.727Z,52.70
2019-01-02T20:43:20.261Z,53.12
2019-01-02T20:45:49.765Z,52.83
2019-01-02T20:48:19.266Z,52.49
2019-01-02T20:50:49.020Z,52.50
2019-01-02T20:53:18.562Z,52.65
2019-01-02T20:55:48.061Z,53.04
2019-01-02T20:58:17.590Z,52.75
2019-01-02T21:00:47.137Z,52.60
2019-01-02T21:03:16.660Z,52.86
2019-01-02T21:05:46.230Z,52.82
2019-01-02T21:08:15.749Z,52.92
2019-01-02T21:10:45.257Z,52.74
2019-01-02T21:13:15.540Z,52.34
2019-01-02T21:15:45.042Z,52.68
2019-01-02T21:18:14.589Z,52.95
2019-01-02T21:20:44.209Z,52.84
2019-01-02T21:23:13.760Z,52.96
2019-01-02T21:25:43.274Z,52.72
2019-01-02T21:28:12.895Z,52.70
2019-01-02T21:30:42.494Z,52.43
2019-01-02T21:33:11.998Z,52.51
2019-01-02T21:35:41.795Z,53.01
2019-01-02T21:38:11.304Z,52.43
2019-01-02T21:40:40.922Z,52.95
2019-01-02T21:43:10.529Z,52.85
2019-01-02T21:45:40.033Z,52.89
2019-01-02T21:48:09.663Z,52.47
2019-01-02T21:50:39.231Z,53.23
2019-01-02T21:53:09.610Z,53.17
2019-01-02T21:55:39.645Z,53.20
2019-01-02T21:58:09.653Z,53.18
2019-01-02T22:00:39.170Z,53.29
2019-01-02T22:03:09.132Z,53.46
2019-01-02T22:05:38.688Z,53.29
2019-01-02T22:08:08.211Z,53.65
2019-01-02T22:10:37.710Z,53.66
2019-01-02T22:13:07.278Z,53.85
2019-01-02T22:15:36.778Z,53.53
2019-01-02T22:18:06.321Z,53.70
2019-01-02T22:20:36.395Z,53.70
2019-01-02T22:23:05.903Z,53.45
2019-01-02T22:25:35.416Z,53.82
2019-01-02T22:28:05.025Z,54.00
2019-01-02T22:30:34.539Z,53.78
2019-01-02T22:33:05.163Z,53.39
2019-01-02T22:35:34.711Z,53.78
2019-01-02T22:38:04.206Z,53.54
2019-01-02T22:40:33.679Z,53.71
2019-01-02T22:43:03.424Z,54.01
2019-01-02T22:45:32.924Z,53.88
2019-01-02T22:48:02.400Z,53.85
2019-01-02T22:50:31.932Z,53.36
2019-01-02T22:53:01.473Z,53.77
2019-01-02T22:55:30.973Z,53.57
2019-01-02T22:58:00.532Z,53.39
2019-01-02T23:00:48.086Z,53.95
2019-01-02T23:03:19.353Z,53.02
2019-01-02T23:06:02.447Z,53.20
2019-01-02T23:08:36.334Z,53.23
2019-01-02T23:11:07.536Z,53.64
2019-01-02T23:13:41.158Z,53.17
2019-01-02T23:16:30.328Z,53.15
2019-01-02T23:19:19.589Z,53.38
2019-01-02T23:21:54.073Z,53.31
2019-01-02T23:24:25.231Z,53.83
2019-01-02T23:27:13.097Z,54.43
2019-01-02T23:29:47.341Z,54.05
2019-01-02T23:32:34.575Z,54.41
2019-01-02T23:35:23.769Z,54.36
2019-01-02T23:38:07.477Z,53.98
2019-01-02T23:40:41.309Z,54.34
2019-01-02T23:43:30.342Z,54.14
2019-01-02T23:46:07.323Z,54.18
2019-01-02T23:48:40.980Z,54.96
2019-01-02T23:51:28.108Z,54.74
2019-01-02T23:54:15.293Z,54.85
2019-01-02T23:56:58.523Z,54.98
2019-01-02T23:59:41.744Z,54.75
